Time;durP1;ratioP1;P1;durP2;ratioP2;P2;SDS_P1;SDS_P2;PMS_P1;PMS_P2;Temp;Humidity;BMP_temperature;BMP_pressure;BME280_temperature;BME280_humidity;BME280_pressure;Samples;Min_cycle;Max_cycle;Signal;HPM_P1;HPM_P2
2022/11/09 00:01:39;;;;;;;3.40;1.30;;;15.80;99.90;;;;;;5036600;28;20452;-82
2022/11/09 00:04:06;;;;;;;3.83;1.40;;;15.80;99.90;;;;;;5031761;28;20535;-83
2022/11/09 00:06:34;;;;;;;2.60;1.13;;;15.80;99.90;;;;;;5034791;28;20486;-85
2022/11/09 00:09:03;;;;;;;3.30;2.00;;;15.80;99.90;;;;;;5038496;28;20486;-84
2022/11/09 00:11:29;;;;;;;2.43;1.10;;;15.80;99.90;;;;;;5039027;28;20450;-83
2022/11/09 00:13:58;;;;;;;2.97;1.37;;;15.80;99.90;;;;;;5044547;28;20545;-82
2022/11/09 00:16:24;;;;;;;4.43;1.20;;;15.80;99.90;;;;;;5043590;28;20550;-82
2022/11/09 00:18:52;;;;;;;2.57;1.20;;;15.80;99.90;;;;;;5042148;28;20527;-83
2022/11/09 00:21:21;;;;;;;4.83;1.50;;;15.80;99.90;;;;;;5043088;28;20452;-81
2022/11/09 00:23:49;;;;;;;2.47;1.60;;;15.80;99.90;;;;;;5043593;28;20448;-83
2022/11/09 00:26:17;;;;;;;2.40;1.30;;;15.80;99.90;;;;;;5043418;28;20480;-82
2022/11/09 00:28:44;;;;;;;3.07;1.30;;;15.80;99.90;;;;;;5043055;28;20583;-82
2022/11/09 00:31:16;;;;;;;2.67;1.37;;;15.80;99.90;;;;;;5042612;28;20519;-83
2022/11/09 00:33:43;;;;;;;3.40;1.40;;;15.80;99.90;;;;;;5043116;28;20474;-81
2022/11/09 00:36:13;;;;;;;3.33;1.13;;;15.70;99.90;;;;;;5042569;28;20926;-81
2022/11/09 00:38:41;;;;;;;2.50;1.37;;;15.80;99.90;;;;;;5041044;28;20555;-84
2022/11/09 00:41:10;;;;;;;2.70;1.10;;;15.70;99.90;;;;;;5042513;28;20463;-81
2022/11/09 00:43:37;;;;;;;2.60;1.10;;;15.70;99.90;;;;;;5042331;28;20932;-83
2022/11/09 00:46:04;;;;;;;6.33;1.20;;;15.70;99.90;;;;;;5042184;28;20536;-83
2022/11/09 00:48:32;;;;;;;3.10;1.07;;;15.70;99.90;;;;;;5041623;28;20492;-82
2022/11/09 00:50:59;;;;;;;3.10;1.10;;;15.80;99.90;;;;;;5042719;28;20531;-83
2022/11/09 00:53:27;;;;;;;4.73;1.30;;;15.70;99.90;;;;;;5041989;28;20543;-82
2022/11/09 00:55:55;;;;;;;2.30;1.37;;;15.80;99.90;;;;;;5042743;28;20926;-81
2022/11/09 00:58:22;;;;;;;2.37;1.00;;;15.70;99.90;;;;;;5042342;28;20453;-82
2022/11/09 01:00:49;;;;;;;2.83;1.10;;;15.60;99.90;;;;;;5042585;28;20463;-83
2022/11/09 01:03:16;;;;;;;5.70;1.90;;;15.60;99.90;;;;;;5042751;28;20515;-82
2022/11/09 01:05:44;;;;;;;3.40;1.30;;;15.60;99.90;;;;;;5042759;28;20481;-81
2022/11/09 01:08:12;;;;;;;2.67;1.30;;;15.60;99.90;;;;;;5042221;28;20973;-83
2022/11/09 01:10:42;;;;;;;2.70;1.40;;;15.50;99.90;;;;;;5041360;28;20459;-83
2022/11/09 01:13:09;;;;;;;5.43;1.13;;;15.50;99.90;;;;;;5022705;28;20465;-82
2022/11/09 01:15:41;;;;;;;4.07;1.30;;;15.50;99.90;;;;;;5026644;28;20647;-82
2022/11/09 01:18:08;;;;;;;3.00;1.17;;;15.50;99.90;;;;;;5041188;28;20824;-83
2022/11/09 01:20:39;;;;;;;4.00;1.20;;;15.50;99.90;;;;;;5041827;28;20530;-82
2022/11/09 01:23:07;;;;;;;2.50;1.10;;;15.50;99.90;;;;;;5042322;28;20453;-84
2022/11/09 01:25:34;;;;;;;3.33;1.47;;;15.50;99.90;;;;;;5042746;28;20558;-82
2022/11/09 01:28:01;;;;;;;2.63;1.33;;;15.50;99.90;;;;;;5041282;28;20575;-82
2022/11/09 01:30:29;;;;;;;1.83;1.00;;;15.40;99.90;;;;;;5042034;28;20543;-83
2022/11/09 01:32:56;;;;;;;2.10;1.10;;;15.40;99.90;;;;;;5042081;28;20542;-82
2022/11/09 01:35:22;;;;;;;3.33;1.40;;;15.40;99.90;;;;;;5041994;28;20473;-83
2022/11/09 01:37:49;;;;;;;2.40;1.10;;;15.40;99.90;;;;;;5041198;28;20525;-80
2022/11/09 01:40:17;;;;;;;2.40;1.20;;;15.30;99.90;;;;;;5041474;28;20451;-83
2022/11/09 01:42:44;;;;;;;2.17;1.03;;;15.40;99.90;;;;;;5041012;28;20456;-81
2022/11/09 01:45:30;;;;;;;3.63;1.00;;;15.40;99.90;;;;;;5041329;28;20471;-82
2022/11/09 01:48:02;;;;;;;2.10;1.10;;;15.30;99.90;;;;;;5041331;28;20582;-84
2022/11/09 01:50:38;;;;;;;3.03;1.57;;;15.30;99.90;;;;;;5041733;28;20514;-83
2022/11/09 01:53:09;;;;;;;2.37;1.30;;;15.30;99.90;;;;;;5041622;28;20536;-82
2022/11/09 01:55:38;;;;;;;2.40;1.00;;;15.30;99.90;;;;;;5041310;28;20543;-80
2022/11/09 01:58:08;;;;;;;2.40;1.20;;;15.30;99.90;;;;;;5041440;28;21015;-82
2022/11/09 02:00:37;;;;;;;5.30;2.77;;;15.30;99.90;;;;;;5041137;28;20524;-82
2022/11/09 02:03:08;;;;;;;2.90;1.20;;;15.40;99.90;;;;;;5041251;28;20457;-81
2022/11/09 02:05:37;;;;;;;3.87;1.30;;;15.40;99.90;;;;;;5040722;28;20982;-82
2022/11/09 02:08:06;;;;;;;3.27;1.40;;;15.40;99.90;;;;;;5040735;28;20490;-83
2022/11/09 02:10:41;;;;;;;2.70;1.30;;;15.30;99.90;;;;;;5039146;28;21012;-81
2022/11/09 02:13:09;;;;;;;4.07;1.50;;;15.40;99.90;;;;;;5038616;28;20453;-82
2022/11/09 02:15:37;;;;;;;2.80;1.10;;;15.30;99.90;;;;;;5040718;28;20488;-83
2022/11/09 02:18:04;;;;;;;2.70;1.03;;;15.30;99.90;;;;;;5040610;28;20540;-81
2022/11/09 02:20:44;;;;;;;3.77;1.10;;;15.30;99.90;;;;;;5040488;28;20469;-80
2022/11/09 02:23:12;;;;;;;3.33;1.30;;;15.30;99.90;;;;;;5041162;28;20446;-82
2022/11/09 02:25:39;;;;;;;3.60;1.40;;;15.30;99.90;;;;;;5041223;28;20540;-82
2022/11/09 02:28:06;;;;;;;3.40;1.47;;;15.20;99.90;;;;;;5040081;28;20490;-81
2022/11/09 02:30:34;;;;;;;3.80;1.30;;;15.20;99.90;;;;;;5040881;28;20451;-84
2022/11/09 02:33:01;;;;;;;2.67;1.00;;;15.30;99.90;;;;;;5040397;28;20457;-83
2022/11/09 02:35:27;;;;;;;4.40;1.60;;;15.20;99.90;;;;;;5040416;28;20552;-82
2022/11/09 02:37:55;;;;;;;2.63;1.30;;;15.20;99.90;;;;;;5040019;28;20520;-81
2022/11/09 02:40:27;;;;;;;3.70;1.20;;;15.20;99.90;;;;;;5040054;28;20449;-82
2022/11/09 02:42:54;;;;;;;2.50;1.20;;;15.20;99.90;;;;;;5039399;28;20537;-82
2022/11/09 02:45:21;;;;;;;2.53;1.00;;;15.20;99.90;;;;;;5040715;28;20540;-83
2022/11/09 02:47:48;;;;;;;4.37;1.33;;;15.20;99.90;;;;;;5039772;28;20527;-81
2022/11/09 02:50:15;;;;;;;2.30;1.10;;;15.20;99.90;;;;;;5040259;28;20857;-82
2022/11/09 02:52:42;;;;;;;3.10;1.10;;;15.20;99.90;;;;;;5040609;28;20482;-81
2022/11/09 02:55:10;;;;;;;2.87;1.20;;;15.20;99.90;;;;;;5040876;28;20564;-82
2022/11/09 02:57:37;;;;;;;3.00;1.07;;;15.10;99.90;;;;;;5040254;28;20471;-83
2022/11/09 03:00:05;;;;;;;3.67;1.33;;;15.10;99.90;;;;;;5039587;28;20453;-83
2022/11/09 03:02:32;;;;;;;3.00;1.17;;;15.10;99.90;;;;;;5040299;28;20468;-82
2022/11/09 03:04:59;;;;;;;2.53;1.27;;;15.00;99.90;;;;;;5040287;28;20495;-81
2022/11/09 03:07:26;;;;;;;2.60;1.10;;;14.90;99.90;;;;;;5039914;28;20473;-83
2022/11/09 03:09:53;;;;;;;4.67;2.13;;;14.90;99.90;;;;;;5038486;28;20507;-83
2022/11/09 03:12:31;;;;;;;3.93;1.30;;;15.00;99.90;;;;;;5039692;28;20450;-83
2022/11/09 03:14:58;;;;;;;4.90;1.70;;;15.00;99.90;;;;;;5040063;28;20856;-82
2022/11/09 03:17:26;;;;;;;3.90;1.20;;;15.00;99.90;;;;;;5041008;28;20541;-83
2022/11/09 03:19:53;;;;;;;3.40;1.30;;;15.00;99.90;;;;;;5043094;28;20821;-81
2022/11/09 03:22:20;;;;;;;7.33;1.40;;;15.00;99.90;;;;;;5043902;28;20546;-81
2022/11/09 03:24:47;;;;;;;3.40;1.50;;;15.00;99.90;;;;;;5042889;28;20525;-82
2022/11/09 03:27:14;;;;;;;4.33;1.20;;;15.00;99.90;;;;;;5042737;28;20456;-81
2022/11/09 03:29:42;;;;;;;3.30;1.20;;;15.00;99.90;;;;;;5042404;28;20489;-82
2022/11/09 03:32:10;;;;;;;7.00;1.83;;;15.00;99.90;;;;;;5043277;28;20522;-82
2022/11/09 03:34:36;;;;;;;3.00;1.23;;;15.00;99.90;;;;;;5043003;28;20542;-82
2022/11/09 03:37:03;;;;;;;5.07;1.20;;;15.00;99.90;;;;;;5043095;28;20540;-83
2022/11/09 03:39:30;;;;;;;5.43;1.47;;;15.10;99.90;;;;;;5043128;28;20448;-83
2022/11/09 03:41:57;;;;;;;3.20;1.33;;;15.10;99.90;;;;;;5043073;28;20452;-81
2022/11/09 03:44:24;;;;;;;3.70;2.00;;;15.10;99.90;;;;;;5043658;28;20529;-83
2022/11/09 03:46:52;;;;;;;5.07;1.40;;;15.10;99.90;;;;;;5042515;28;20501;-82
2022/11/09 03:49:19;;;;;;;3.10;1.17;;;15.10;99.90;;;;;;5041327;28;20482;-81
2022/11/09 03:51:45;;;;;;;3.30;1.20;;;15.20;99.90;;;;;;5043205;28;20591;-83
2022/11/09 03:54:12;;;;;;;4.87;1.60;;;15.10;99.90;;;;;;5044178;28;20519;-83
2022/11/09 03:56:40;;;;;;;5.93;1.37;;;15.10;99.90;;;;;;5042585;28;20485;-82
2022/11/09 03:59:06;;;;;;;2.90;1.40;;;15.10;99.90;;;;;;5040931;28;20452;-81
2022/11/09 04:01:33;;;;;;;2.57;1.40;;;15.10;99.90;;;;;;5043050;28;20536;-81
2022/11/09 04:04:01;;;;;;;2.97;1.00;;;15.20;99.90;;;;;;5042119;28;20552;-83
2022/11/09 04:06:28;;;;;;;4.20;1.33;;;15.20;99.90;;;;;;5042313;28;20546;-83
2022/11/09 04:08:55;;;;;;;5.90;1.60;;;15.20;99.90;;;;;;5041220;28;21093;-81
2022/11/09 04:11:22;;;;;;;4.93;1.30;;;15.30;99.90;;;;;;5042109;28;20548;-82
2022/11/09 04:13:49;;;;;;;5.47;1.37;;;15.30;99.90;;;;;;5043110;28;21043;-83
2022/11/09 04:16:15;;;;;;;5.17;1.37;;;15.30;99.90;;;;;;5042941;28;20487;-83
2022/11/09 04:18:42;;;;;;;5.07;1.23;;;15.30;99.90;;;;;;5041640;28;21021;-80
2022/11/09 04:21:10;;;;;;;8.07;1.30;;;15.30;99.90;;;;;;5042265;28;20451;-83
2022/11/09 04:23:37;;;;;;;3.50;1.23;;;15.10;99.90;;;;;;5043246;28;20537;-84
2022/11/09 04:26:04;;;;;;;5.77;1.57;;;15.00;99.90;;;;;;5042709;28;20545;-82
2022/11/09 04:28:31;;;;;;;2.60;1.37;;;14.90;99.90;;;;;;5042094;28;20457;-82
2022/11/09 04:31:01;;;;;;;5.10;1.67;;;14.90;99.90;;;;;;5042707;28;20536;-83
2022/11/09 04:33:27;;;;;;;3.93;1.57;;;14.70;99.90;;;;;;5042482;28;20540;-82
2022/11/09 04:35:54;;;;;;;3.80;1.23;;;14.80;99.90;;;;;;5044200;28;20479;-80
2022/11/09 04:38:22;;;;;;;3.40;1.23;;;14.80;99.90;;;;;;5042138;28;20540;-83
2022/11/09 04:40:49;;;;;;;3.50;1.73;;;14.60;99.90;;;;;;5043307;28;20555;-83
2022/11/09 04:43:16;;;;;;;3.90;1.40;;;14.60;99.90;;;;;;5043763;28;20549;-83
2022/11/09 04:45:43;;;;;;;3.93;1.37;;;14.70;99.90;;;;;;5043687;28;20563;-82
2022/11/09 04:48:11;;;;;;;3.40;1.73;;;14.60;99.90;;;;;;5041728;28;20453;-81
2022/11/09 04:50:37;;;;;;;7.07;2.03;;;14.60;99.90;;;;;;5042654;28;20483;-82
2022/11/09 04:53:09;;;;;;;3.17;1.60;;;14.70;99.90;;;;;;5042742;28;20445;-83
2022/11/09 04:55:38;;;;;;;3.67;1.40;;;14.70;99.90;;;;;;5041341;28;20469;-82
2022/11/09 04:58:05;;;;;;;3.47;1.40;;;14.70;99.90;;;;;;5041289;28;20455;-83
2022/11/09 05:00:32;;;;;;;4.70;1.53;;;14.80;99.90;;;;;;5041319;28;20531;-82
2022/11/09 05:03:01;;;;;;;4.37;1.27;;;14.80;99.90;;;;;;5042809;28;20548;-83
2022/11/09 05:05:28;;;;;;;3.40;1.20;;;14.90;99.90;;;;;;5042705;28;20489;-82
2022/11/09 05:07:55;;;;;;;2.33;1.17;;;14.90;99.90;;;;;;5041858;28;20456;-82
2022/11/09 05:10:22;;;;;;;3.27;1.23;;;14.80;99.90;;;;;;5041790;28;20484;-84
2022/11/09 05:12:50;;;;;;;4.53;1.67;;;14.90;99.90;;;;;;5042832;28;20552;-82
2022/11/09 05:15:17;;;;;;;5.90;1.43;;;14.90;99.90;;;;;;5042936;28;20550;-84
2022/11/09 05:17:44;;;;;;;7.53;1.50;;;14.90;99.90;;;;;;5042437;28;20449;-83
2022/11/09 05:20:12;;;;;;;4.17;1.30;;;14.80;99.90;;;;;;5042744;28;20519;-83
2022/11/09 05:25:26;;;;;;;5.10;1.30;;;14.70;99.90;;;;;;5041523;28;20514;-84
2022/11/09 05:27:54;;;;;;;2.40;1.17;;;14.70;99.90;;;;;;5040062;28;20472;-83
2022/11/09 05:30:21;;;;;;;3.20;1.10;;;14.70;99.90;;;;;;5040849;28;20484;-83
2022/11/09 05:32:47;;;;;;;4.07;1.40;;;14.60;99.90;;;;;;5040826;28;20488;-82
2022/11/09 05:35:14;;;;;;;7.03;1.40;;;14.60;99.90;;;;;;5038495;28;20486;-83
2022/11/09 05:37:42;;;;;;;3.53;1.00;;;14.60;99.90;;;;;;5041971;28;20547;-81
2022/11/09 05:40:10;;;;;;;5.93;2.00;;;14.50;99.90;;;;;;5029423;28;20514;-83
2022/11/09 05:42:39;;;;;;;6.50;1.90;;;14.50;99.90;;;;;;5041998;28;20464;-83
2022/11/09 05:45:09;;;;;;;3.30;1.10;;;14.50;99.90;;;;;;5041570;28;21020;-83
2022/11/09 05:47:40;;;;;;;3.93;1.30;;;14.40;99.90;;;;;;5038208;28;20540;-85
2022/11/09 05:50:09;;;;;;;5.30;1.53;;;14.40;99.90;;;;;;5041282;28;20574;-82
2022/11/09 05:52:36;;;;;;;7.00;2.40;;;14.40;99.90;;;;;;5040146;28;20449;-83
2022/11/09 05:55:03;;;;;;;3.07;1.43;;;14.40;99.90;;;;;;5036089;28;20489;-85
2022/11/09 05:57:30;;;;;;;3.80;1.37;;;14.40;99.90;;;;;;5038843;28;20560;-83
2022/11/09 05:59:57;;;;;;;6.17;1.53;;;14.30;99.90;;;;;;5026397;28;20950;-82
2022/11/09 06:02:25;;;;;;;3.70;1.50;;;14.30;99.90;;;;;;5036728;28;20516;-82
2022/11/09 06:04:52;;;;;;;4.10;1.40;;;14.20;99.90;;;;;;5039716;28;20477;-83
2022/11/09 06:07:19;;;;;;;3.47;1.60;;;14.30;99.90;;;;;;5033556;28;20457;-84
2022/11/09 06:09:46;;;;;;;6.17;1.27;;;14.40;99.90;;;;;;5036946;28;20564;-82
2022/11/09 06:12:12;;;;;;;5.30;1.57;;;14.40;99.90;;;;;;5040969;28;20448;-82
2022/11/09 06:14:39;;;;;;;3.60;1.37;;;14.40;99.90;;;;;;5039641;28;20555;-84
2022/11/09 06:17:06;;;;;;;4.30;1.10;;;14.40;99.90;;;;;;5038132;28;20464;-82
2022/11/09 06:19:34;;;;;;;5.13;1.40;;;14.30;99.90;;;;;;5036099;28;20527;-83
2022/11/09 06:22:01;;;;;;;4.10;1.60;;;14.20;99.90;;;;;;5019638;28;20536;-83
2022/11/09 06:24:28;;;;;;;6.47;2.07;;;14.00;99.90;;;;;;5034647;28;20975;-84
2022/11/09 06:26:54;;;;;;;5.40;1.23;;;13.90;99.90;;;;;;5040223;28;20533;-80
2022/11/09 06:29:21;;;;;;;4.70;1.50;;;13.80;99.90;;;;;;5038431;28;20481;-83
2022/11/09 06:31:50;;;;;;;5.90;1.60;;;13.80;99.90;;;;;;5039971;28;20954;-83
2022/11/09 06:34:17;;;;;;;3.87;1.50;;;13.80;99.90;;;;;;5040847;28;20454;-83
2022/11/09 06:36:45;;;;;;;5.87;1.60;;;13.70;99.90;;;;;;5040224;28;20536;-82
2022/11/09 06:39:12;;;;;;;5.43;1.70;;;13.70;99.90;;;;;;5039776;28;20484;-83
2022/11/09 06:41:39;;;;;;;4.63;1.50;;;13.70;99.90;;;;;;5040730;28;20540;-84
2022/11/09 06:44:06;;;;;;;5.90;3.33;;;13.80;99.90;;;;;;5040370;28;20517;-83
2022/11/09 06:46:33;;;;;;;4.33;1.80;;;13.70;99.90;;;;;;5040420;28;20480;-83
2022/11/09 06:49:00;;;;;;;6.53;2.00;;;13.70;99.90;;;;;;5039921;28;20537;-83
2022/11/09 06:51:27;;;;;;;5.10;1.93;;;13.70;99.90;;;;;;5040044;28;20466;-83
2022/11/09 06:53:55;;;;;;;4.83;1.60;;;13.70;99.90;;;;;;5044062;28;20546;-84
2022/11/09 06:56:22;;;;;;;6.13;1.80;;;13.70;99.90;;;;;;5043754;28;20508;-83
2022/11/09 06:58:49;;;;;;;3.33;1.77;;;13.60;99.90;;;;;;5042512;28;20543;-83
2022/11/09 07:01:18;;;;;;;4.23;1.77;;;13.70;99.90;;;;;;5042150;28;20456;-83
2022/11/09 07:03:44;;;;;;;4.83;2.00;;;13.60;99.90;;;;;;5042818;28;20548;-83
2022/11/09 07:06:12;;;;;;;5.30;2.07;;;13.60;99.90;;;;;;5035478;28;20504;-84
2022/11/09 07:08:40;;;;;;;5.67;2.20;;;13.60;99.90;;;;;;5038182;28;20452;-82
2022/11/09 07:11:11;;;;;;;4.07;1.60;;;13.60;99.90;;;;;;5042977;28;20485;-83
2022/11/09 07:13:38;;;;;;;7.50;2.07;;;13.60;99.90;;;;;;5044641;28;20481;-84
2022/11/09 07:16:06;;;;;;;3.93;1.63;;;13.70;99.90;;;;;;5043637;28;20734;-82
2022/11/09 07:18:33;;;;;;;6.60;2.57;;;13.70;99.90;;;;;;5041565;28;20463;-82
2022/11/09 07:21:00;;;;;;;5.73;1.57;;;13.70;99.90;;;;;;5037690;28;20503;-81
2022/11/09 07:23:27;;;;;;;7.00;1.80;;;13.80;99.90;;;;;;5034876;28;20449;-82
2022/11/09 07:25:54;;;;;;;7.80;1.70;;;13.80;99.90;;;;;;5038856;28;20472;-82
2022/11/09 07:28:22;;;;;;;3.60;1.80;;;13.80;99.90;;;;;;5041145;28;20489;-84
2022/11/09 07:30:51;;;;;;;6.53;2.13;;;13.80;99.90;;;;;;5041279;28;20565;-84
2022/11/09 07:33:19;;;;;;;5.23;1.40;;;13.90;99.90;;;;;;5044304;28;20498;-84
2022/11/09 07:35:46;;;;;;;5.13;1.53;;;13.90;99.90;;;;;;5042750;28;20603;-82
2022/11/09 07:38:15;;;;;;;4.40;1.80;;;13.90;99.90;;;;;;5039113;28;21048;-83
2022/11/09 07:40:43;;;;;;;7.40;2.20;;;14.00;99.90;;;;;;5042505;28;20449;-81
2022/11/09 07:43:11;;;;;;;4.43;2.00;;;14.00;99.90;;;;;;5041678;28;20460;-82
2022/11/09 07:45:40;;;;;;;9.50;2.33;;;14.10;99.90;;;;;;5042073;28;20503;-83
2022/11/09 07:48:10;;;;;;;7.97;2.13;;;14.10;99.90;;;;;;5042238;28;20537;-80
2022/11/09 07:50:39;;;;;;;5.93;3.03;;;14.10;99.90;;;;;;5036917;28;20481;-82
2022/11/09 07:53:07;;;;;;;5.80;1.80;;;14.10;99.90;;;;;;5041395;28;20454;-82
2022/11/09 07:55:35;;;;;;;3.90;1.37;;;14.00;99.90;;;;;;5040270;28;20508;-84
2022/11/09 07:58:03;;;;;;;4.53;1.70;;;14.10;99.90;;;;;;5039323;28;20453;-83
2022/11/09 08:00:32;;;;;;;6.50;1.40;;;14.00;99.90;;;;;;5040857;28;20451;-81
2022/11/09 08:03:00;;;;;;;2.87;1.30;;;14.00;99.90;;;;;;5035609;28;20454;-82
2022/11/09 08:05:27;;;;;;;2.40;1.10;;;14.00;99.90;;;;;;5038916;28;20554;-81
2022/11/09 08:07:55;;;;;;;2.50;1.00;;;13.90;99.90;;;;;;5038347;28;20517;-79
2022/11/09 08:10:23;;;;;;;5.30;1.20;;;14.00;99.90;;;;;;5040790;28;20480;-82
2022/11/09 08:12:53;;;;;;;4.40;1.67;;;13.90;99.90;;;;;;5040404;28;20451;-81
2022/11/09 08:15:21;;;;;;;5.73;1.40;;;14.00;99.90;;;;;;5039723;28;20481;-83
2022/11/09 08:17:48;;;;;;;4.57;1.27;;;14.00;99.90;;;;;;5041151;28;20470;-81
2022/11/09 08:20:17;;;;;;;2.77;1.27;;;14.00;99.90;;;;;;5040677;28;20509;-82
2022/11/09 08:22:44;;;;;;;2.77;1.10;;;14.10;99.90;;;;;;5040068;28;20484;-80
2022/11/09 08:25:12;;;;;;;5.20;1.37;;;14.10;99.90;;;;;;5036439;28;21022;-82
2022/11/09 08:27:39;;;;;;;3.53;1.40;;;14.10;99.90;;;;;;5043966;28;20532;-82
2022/11/09 08:30:10;;;;;;;4.13;1.17;;;14.10;99.90;;;;;;5039005;28;20488;-82
2022/11/09 08:32:37;;;;;;;5.47;1.50;;;14.20;99.90;;;;;;5041293;28;20553;-84
2022/11/09 08:35:04;;;;;;;6.80;1.23;;;14.20;99.90;;;;;;5041130;28;20477;-82
2022/11/09 08:37:34;;;;;;;5.10;1.87;;;14.20;99.90;;;;;;5040574;28;20469;-82
2022/11/09 08:40:01;;;;;;;3.93;1.30;;;14.10;99.90;;;;;;5039159;28;20450;-83
2022/11/09 08:42:28;;;;;;;3.53;1.10;;;14.20;99.90;;;;;;5043086;28;20540;-80
2022/11/09 08:44:54;;;;;;;6.70;1.43;;;14.10;99.90;;;;;;5043404;28;20552;-80
2022/11/09 08:47:21;;;;;;;4.30;1.40;;;14.10;99.90;;;;;;5043076;28;20517;-83
2022/11/09 08:49:48;;;;;;;3.20;1.10;;;14.20;99.90;;;;;;5040412;28;20486;-81
2022/11/09 08:52:17;;;;;;;6.33;1.50;;;14.30;99.90;;;;;;5042282;28;20540;-80
2022/11/09 08:54:45;;;;;;;4.13;1.60;;;14.30;99.90;;;;;;5041518;28;20552;-79
2022/11/09 08:57:12;;;;;;;3.50;1.23;;;14.40;99.90;;;;;;5042021;28;20540;-83
2022/11/09 08:59:39;;;;;;;2.90;1.20;;;14.40;99.90;;;;;;5039207;28;20528;-80
2022/11/09 09:02:05;;;;;;;4.10;1.40;;;14.50;99.90;;;;;;5041149;28;20484;-80
2022/11/09 09:04:32;;;;;;;4.67;1.30;;;14.50;99.90;;;;;;5042310;28;20493;-79
2022/11/09 09:07:00;;;;;;;3.57;1.27;;;14.60;99.90;;;;;;5042593;28;20484;-81
2022/11/09 09:09:27;;;;;;;4.90;1.30;;;14.60;99.90;;;;;;5042794;28;20835;-81
2022/11/09 09:11:55;;;;;;;3.60;1.40;;;14.60;99.90;;;;;;5043651;28;20481;-81
2022/11/09 09:14:22;;;;;;;4.03;1.60;;;14.60;99.90;;;;;;5042683;28;20538;-80
2022/11/09 09:16:49;;;;;;;5.37;2.10;;;14.70;99.90;;;;;;5045594;28;20504;-79
2022/11/09 09:19:16;;;;;;;7.27;1.30;;;14.70;99.90;;;;;;5045996;28;20941;-78
2022/11/09 09:21:43;;;;;;;5.00;1.50;;;14.80;99.90;;;;;;5041723;28;20444;-81
2022/11/09 09:24:09;;;;;;;2.43;1.13;;;14.80;99.90;;;;;;5039334;28;20447;-82
2022/11/09 09:26:36;;;;;;;4.50;1.50;;;14.90;99.90;;;;;;5040039;28;20471;-80
2022/11/09 09:29:05;;;;;;;3.27;1.10;;;15.00;99.90;;;;;;5040032;28;20552;-82
2022/11/09 09:31:31;;;;;;;4.33;1.30;;;15.00;99.90;;;;;;5041795;28;20511;-81
2022/11/09 09:33:58;;;;;;;4.07;1.17;;;15.00;99.90;;;;;;5039361;28;20524;-85
2022/11/09 09:36:25;;;;;;;4.43;1.40;;;15.10;99.90;;;;;;5035637;28;20943;-84
2022/11/09 09:38:53;;;;;;;3.70;1.03;;;15.10;99.90;;;;;;5041077;28;20456;-82
2022/11/09 09:41:25;;;;;;;3.13;1.23;;;15.10;99.90;;;;;;5040746;28;20515;-82
2022/11/09 09:43:57;;;;;;;3.93;1.10;;;15.10;99.90;;;;;;5038839;28;20565;-83
2022/11/09 09:46:31;;;;;;;4.13;1.30;;;15.20;99.90;;;;;;5038807;28;20578;-83
2022/11/09 09:49:01;;;;;;;3.17;1.20;;;15.30;99.90;;;;;;5037698;28;20519;-82
2022/11/09 09:51:35;;;;;;;6.27;1.70;;;15.30;99.90;;;;;;5037162;28;20574;-81
2022/11/09 09:54:06;;;;;;;3.50;1.10;;;15.30;99.90;;;;;;5038076;28;20541;-82
2022/11/09 09:56:37;;;;;;;2.63;1.13;;;15.30;99.90;;;;;;5035869;28;20577;-81
2022/11/09 09:59:10;;;;;;;4.33;1.73;;;15.40;99.90;;;;;;5036609;28;21302;-80
2022/11/09 10:01:42;;;;;;;4.83;1.73;;;15.40;99.90;;;;;;5027455;28;20453;-82
2022/11/09 10:04:16;;;;;;;7.20;1.10;;;15.50;99.90;;;;;;5026315;28;20553;-81
2022/11/09 10:06:57;;;;;;;5.43;1.30;;;15.50;99.90;;;;;;5038340;28;20571;-79
2022/11/09 10:09:33;;;;;;;5.03;1.40;;;15.60;99.90;;;;;;5038881;28;20443;-82
2022/11/09 10:12:08;;;;;;;3.83;1.10;;;15.60;99.90;;;;;;5039660;28;20495;-81
2022/11/09 10:14:56;;;;;;;4.50;2.23;;;15.60;99.90;;;;;;5038427;28;20462;-84
2022/11/09 10:17:34;;;;;;;3.67;1.20;;;15.60;99.90;;;;;;5040395;28;20448;-83
2022/11/09 10:20:17;;;;;;;9.40;1.83;;;15.70;99.90;;;;;;5041296;28;20539;-80
2022/11/09 10:22:52;;;;;;;3.93;0.93;;;15.60;99.90;;;;;;5040683;28;20535;-81
2022/11/09 10:25:23;;;;;;;3.47;1.10;;;15.70;99.90;;;;;;5040738;28;20472;-81
2022/11/09 10:27:53;;;;;;;5.43;1.30;;;15.60;99.90;;;;;;5044585;28;20449;-80
2022/11/09 10:30:22;;;;;;;10.93;1.57;;;15.50;99.90;;;;;;5044902;28;20444;-83
2022/11/09 10:32:54;;;;;;;3.50;1.53;;;15.50;99.90;;;;;;5044899;28;20535;-82
2022/11/09 10:35:24;;;;;;;3.50;1.20;;;15.60;99.90;;;;;;5044458;28;20566;-81
2022/11/09 10:37:53;;;;;;;5.67;2.00;;;15.50;99.90;;;;;;5040740;28;20540;-81
2022/11/09 10:40:23;;;;;;;5.17;1.33;;;15.60;99.90;;;;;;5042797;28;20511;-83
2022/11/09 10:42:53;;;;;;;4.90;1.50;;;15.80;99.90;;;;;;5042473;28;20529;-83
2022/11/09 10:45:30;;;;;;;4.27;1.40;;;15.90;99.90;;;;;;5042027;28;20833;-81
2022/11/09 10:47:59;;;;;;;5.30;1.57;;;15.80;99.90;;;;;;5042319;28;20615;-82
2022/11/09 10:50:31;;;;;;;6.00;1.20;;;15.90;99.90;;;;;;5043310;28;20562;-82
2022/11/09 10:53:15;;;;;;;6.40;1.50;;;15.90;99.90;;;;;;5042041;28;20469;-81
2022/11/09 10:55:51;;;;;;;8.47;1.50;;;16.10;99.90;;;;;;5039901;28;20848;-82
2022/11/09 10:58:26;;;;;;;5.40;1.70;;;16.10;99.90;;;;;;5042061;28;20454;-80
2022/11/09 11:01:00;;;;;;;3.00;1.23;;;16.20;99.90;;;;;;5043853;28;20496;-82
2022/11/09 11:03:29;;;;;;;5.23;1.20;;;16.50;99.90;;;;;;5043181;28;20537;-82
2022/11/09 11:06:00;;;;;;;3.13;1.20;;;16.90;99.90;;;;;;5042164;28;20524;-81
2022/11/09 11:08:37;;;;;;;5.67;1.30;;;17.00;99.90;;;;;;5041936;28;20459;-83
2022/11/09 11:11:23;;;;;;;5.67;1.20;;;16.70;99.90;;;;;;5039526;28;20590;-82
2022/11/09 11:13:53;;;;;;;7.10;1.50;;;16.90;99.90;;;;;;5042023;28;20901;-82
2022/11/09 11:16:29;;;;;;;6.13;1.23;;;17.20;99.90;;;;;;5042427;28;20500;-82
2022/11/09 11:18:57;;;;;;;6.80;1.70;;;18.10;99.90;;;;;;5041221;28;20522;-82
2022/11/09 11:21:25;;;;;;;10.80;1.70;;;18.50;99.90;;;;;;5041319;28;20444;-81
2022/11/09 11:24:11;;;;;;;5.20;1.30;;;18.70;99.90;;;;;;5027436;28;20452;-82
2022/11/09 11:26:45;;;;;;;4.60;1.37;;;19.70;99.90;;;;;;5042374;28;20509;-83
2022/11/09 11:29:32;;;;;;;5.90;1.40;;;19.90;99.90;;;;;;5022439;28;20456;-81
2022/11/09 11:31:58;;;;;;;4.23;1.07;;;20.70;99.90;;;;;;5036750;28;20830;-81
2022/11/09 11:34:27;;;;;;;4.00;1.40;;;20.50;99.90;;;;;;5035265;28;20460;-80
2022/11/09 11:37:06;;;;;;;4.53;1.23;;;20.70;99.90;;;;;;5044371;28;20451;-82
2022/11/09 11:39:46;;;;;;;3.60;1.13;;;20.50;99.90;;;;;;5042046;28;20450;-82
2022/11/09 11:42:35;;;;;;;3.60;1.10;;;21.70;99.90;;;;;;5043658;28;20874;-82
2022/11/09 11:45:14;;;;;;;4.60;1.17;;;22.20;99.90;;;;;;5035097;28;20496;-83
2022/11/09 11:47:53;;;;;;;2.70;1.23;;;22.30;99.90;;;;;;5042401;28;20539;-80
2022/11/09 11:50:36;;;;;;;5.23;0.97;;;22.30;99.90;;;;;;5043087;28;20524;-81
2022/11/09 11:53:19;;;;;;;3.97;1.93;;;21.40;99.90;;;;;;5044092;28;20464;-83
2022/11/09 11:56:06;;;;;;;7.17;1.77;;;21.30;99.90;;;;;;5040389;28;20544;-83
2022/11/09 11:58:48;;;;;;;4.20;1.33;;;21.30;99.90;;;;;;5040510;28;20811;-80
2022/11/09 12:01:31;;;;;;;7.50;1.20;;;21.10;99.90;;;;;;5042672;28;20535;-83
2022/11/09 12:04:21;;;;;;;3.00;1.20;;;20.60;99.90;;;;;;5037547;28;20493;-81
2022/11/09 12:07:05;;;;;;;6.73;1.30;;;20.00;99.90;;;;;;5043462;28;20856;-82
2022/11/09 12:09:46;;;;;;;4.10;1.20;;;19.60;99.90;;;;;;5041477;28;20512;-80
2022/11/09 12:12:21;;;;;;;4.20;1.23;;;19.30;99.90;;;;;;5059586;28;20574;-80
2022/11/09 12:14:59;;;;;;;3.13;1.20;;;19.30;99.90;;;;;;5037519;28;20556;-82
2022/11/09 12:17:32;;;;;;;6.27;1.20;;;18.90;99.90;;;;;;5042074;28;20487;-81
2022/11/09 12:20:09;;;;;;;3.70;1.20;;;18.50;99.90;;;;;;5028730;28;20522;-81
2022/11/09 12:22:48;;;;;;;4.53;1.10;;;18.40;99.90;;;;;;5041407;28;20564;-82
2022/11/09 12:25:20;;;;;;;3.30;0.90;;;18.00;99.90;;;;;;5042487;28;20998;-82
2022/11/09 12:28:11;;;;;;;4.37;1.50;;;17.70;99.90;;;;;;5047379;28;20533;-79
2022/11/09 12:30:58;;;;;;;3.80;1.60;;;17.70;99.90;;;;;;5039958;28;20596;-81
2022/11/09 12:33:31;;;;;;;6.47;1.27;;;17.60;99.90;;;;;;5041211;28;20453;-80
2022/11/09 12:36:03;;;;;;;4.53;1.10;;;17.70;99.90;;;;;;5040863;28;20471;-81
2022/11/09 12:38:41;;;;;;;4.90;1.13;;;17.80;99.90;;;;;;5043864;28;20437;-81
2022/11/09 12:41:13;;;;;;;6.80;1.83;;;17.90;99.90;;;;;;5032286;28;20462;-83
2022/11/09 12:43:47;;;;;;;3.10;1.00;;;17.50;99.90;;;;;;5043183;28;20521;-83
2022/11/09 12:46:16;;;;;;;4.77;1.30;;;17.30;99.90;;;;;;5047553;28;20468;-80
2022/11/09 12:48:44;;;;;;;5.23;1.53;;;17.10;99.90;;;;;;5043315;28;20543;-81
2022/11/09 12:51:11;;;;;;;5.87;1.40;;;16.90;99.90;;;;;;5039294;28;20484;-82
2022/11/09 12:53:39;;;;;;;6.17;1.40;;;16.80;99.90;;;;;;5040410;28;20452;-81
2022/11/09 12:56:11;;;;;;;4.53;1.53;;;16.80;99.90;;;;;;5041664;28;20547;-80
2022/11/09 12:58:39;;;;;;;4.47;1.40;;;16.60;99.90;;;;;;5040539;28;20889;-82
2022/11/09 13:01:10;;;;;;;6.80;1.67;;;16.50;99.90;;;;;;5041090;28;20453;-81
2022/11/09 13:03:39;;;;;;;2.90;1.07;;;16.50;99.90;;;;;;5040230;28;20512;-81